K7TUS-6 Weather Reports


Display with metric or nautical units.
time (UTC)temp
F
wind
direction
speed
MPH
gust
MPH
rain 1hr
in
rain 24hr
in
rain mn
in
humidity
%
barometer
mb
20211024092004 41 205 33.0 35.0 0.00 0.00 0.00 57 982.5
20211024091509 41 205 32.0 34.0 0.00 0.00 0.00 54 982.9
20211024091008 42 207 31.0 38.0 0.00 0.00 0.00 46 983.0
20211024090507 42 209 33.0 37.0 0.00 0.00 0.00 47 982.8
20211024090007 42 211 32.0 34.0 0.00 0.00 0.00 50 983.1
20211024085506 41 212 31.0 33.0 0.00 0.00 0.00 54 983.6
20211024085006 42 205 32.0 35.0 0.00 0.00 0.00 52 979.2
20211024084505 43 213 42.0 45.0 0.00 0.00 0.00 35 981.3
20211024084009 43 206 38.0 44.0 0.00 0.00 0.00 42 982.7
20211024083509 43 211 42.0 44.0 0.00 0.00 0.00 37 982.8
20211024083005 43 206 40.0 46.0 0.00 0.00 0.00 41 983.9
20211024082509 44 203 43.0 47.0 0.00 0.00 0.00 38 983.5
20211024082009 43 206 43.0 49.0 0.00 0.00 0.00 45 984.8
20211024081508 44 206 45.0 50.0 0.00 0.00 0.00 43 985.7
20211024081008 44 206 48.0 51.0 0.00 0.00 0.00 41 986.3
20211024080507 44 204 47.0 50.0 0.00 0.00 0.00 43 977.6
20211024080006 43 207 44.0 47.0 0.00 0.00 0.00 48 977.6
20211024075506 43 206 41.0 45.0 0.00 0.00 0.00 49 982.0
20211024075005 43 209 43.0 49.0 0.00 0.00 0.00 51 983.2
20211024074504 43 203 42.0 46.0 0.00 0.00 0.00 50 984.5
20211024074004 43 204 41.0 46.0 0.00 0.00 0.00 49 982.4
20211024073509 44 204 47.0 53.0 0.00 0.00 0.00 49 983.5
20211024073008 43 207 43.0 50.0 0.00 0.00 0.00 46 982.5
20211024072508 43 207 48.0 51.0 0.00 0.00 0.00 45 984.7
20211024072007 43 205 43.0 47.0 0.00 0.00 0.00 46 984.5
20211024071507 43 204 43.0 49.0 0.00 0.00 0.00 47 983.5
20211024071007 42 204 43.0 45.0 0.00 0.00 0.00 48 983.0
20211024070506 43 203 51.0 53.0 0.00 0.00 0.00 49 981.9
20211024070006 42 202 45.0 47.0 0.00 0.00 0.00 56 983.3
20211024065505 43 200 45.0 49.0 0.00 0.00 0.00 54 982.5
20211024065005 43 200 43.0 45.0 0.00 0.00 0.00 61 978.2
20211024064504 43 201 42.0 46.0 0.00 0.00 0.00 60 978.7
20211024064004 43 205 44.0 46.0 0.00 0.00 0.00 64 980.1
20211024063509 42 205 41.0 45.0 0.00 0.00 0.00 66 981.8
20211024063008 43 204 41.0 45.0 0.00 0.00 0.00 67 981.5
20211024062507 43 201 42.0 44.0 0.00 0.00 0.00 68 980.6
20211024062007 43 200 42.0 47.0 0.00 0.00 0.00 68 981.1
20211024061506 43 206 42.0 45.0 0.00 0.00 0.00 69 980.0
20211024061006 43 204 41.0 44.0 0.00 0.00 0.00 70 981.3
20211024060505 43 200 39.0 43.0 0.00 0.00 0.00 70 982.2
20211024060004 44 208 40.0 42.0 0.00 0.00 0.00 70 979.5
20211024055509 44 205 42.0 46.0 0.00 0.00 0.00 70 978.1
20211024055008 44 207 42.0 45.0 0.00 0.00 0.00 69 980.3
20211024054508 44 198 43.0 47.0 0.00 0.00 0.00 69 979.6
20211024054007 44 204 43.0 49.0 0.00 0.00 0.00 69 980.9
20211024053507 44 207 44.0 48.0 0.00 0.00 0.00 67 976.4
20211024053007 44 205 43.0 46.0 0.00 0.00 0.00 67 979.5
20211024052506 44 203 44.0 48.0 0.00 0.00 0.00 66 978.6
20211024052006 44 203 41.0 44.0 0.00 0.00 0.00 66 980.4
20211024051506 44 202 43.0 48.0 0.00 0.00 0.00 65 980.2
20211024051005 44 204 47.0 53.0 0.00 0.00 0.00 64 980.2
20211024050504 44 201 39.0 42.0 0.00 0.00 0.00 64 981.9
20211024050009 44 204 46.0 53.0 0.00 0.00 0.00 64 980.6
20211024045508 44 202 46.0 51.0 0.00 0.00 0.00 63 982.8
20211024045008 44 207 48.0 53.0 0.00 0.00 0.00 63 982.5
20211024044508 44 203 44.0 47.0 0.00 0.00 0.00 63 982.9
20211024044007 44 207 43.0 47.0 0.00 0.00 0.00 63 979.0
20211024043506 44 203 41.0 43.0 0.00 0.00 0.00 61 983.1
20211024043006 44 208 41.0 47.0 0.00 0.00 0.00 61 980.0
20211024042505 44 207 38.0 42.0 0.00 0.00 0.00 61 980.7
20211024042004 44 202 38.0 45.0 0.00 0.00 0.00 60 981.1
20211024041504 45 200 39.0 42.0 0.00 0.00 0.00 60 979.6
20211024041008 44 197 38.0 42.0 0.00 0.00 0.00 61 979.7
20211024040507 44 202 42.0 44.0 0.00 0.00 0.00 61 979.6
20211024040007 44 203 37.0 39.0 0.00 0.00 0.00 61 979.8
20211024035506 44 205 40.0 44.0 0.00 0.00 0.00 61 980.0
20211024035005 44 200 42.0 47.0 0.00 0.00 0.00 61 985.7
20211024034505 44 204 41.0 44.0 0.00 0.00 0.00 59 979.6
20211024034003 44 206 40.0 45.0 0.00 0.00 0.00 60 984.7
20211024033508 45 204 39.0 42.0 0.00 0.00 0.00 59 983.6
20211024033008 45 199 35.0 38.0 0.00 0.00 0.00 58 981.8
20211024032507 45 205 39.0 43.0 0.00 0.00 0.00 58 983.1
20211024032007 45 203 37.0 41.0 0.00 0.00 0.00 57 982.2
20211024031506 45 204 36.0 41.0 0.00 0.00 0.00 57 981.8
20211024031005 45 203 35.0 38.0 0.00 0.00 0.00 56 979.7
20211024030504 45 200 37.0 40.0 0.00 0.00 0.00 55 981.6
20211024030009 45 198 35.0 37.0 0.00 0.00 0.00 54 985.2
20211024025508 45 203 35.0 38.0 0.00 0.00 0.00 53 979.3
20211024025008 45 198 34.0 36.0 0.00 0.00 0.00 53 982.7
20211024024507 45 205 39.0 42.0 0.00 0.00 0.00 53 981.4
20211024024007 45 202 37.0 40.0 0.00 0.00 0.00 53 980.1
20211024023506 45 202 40.0 42.0 0.00 0.00 0.00 53 981.1
20211024023006 45 193 36.0 38.0 0.00 0.00 0.00 53 981.7
20211024022505 45 201 38.0 41.0 0.00 0.00 0.00 54 983.4
20211024022004 45 200 35.0 40.0 0.00 0.00 0.00 53 984.9
20211024021503 45 203 34.0 38.0 0.00 0.00 0.00 53 981.3
20211024021008 45 201 33.0 35.0 0.00 0.00 0.00 53 983.6
20211024020507 45 204 30.0 32.0 0.00 0.00 0.00 52 983.5
20211024020007 46 199 32.0 34.0 0.00 0.00 0.00 52 984.5
20211024015506 46 200 31.0 33.0 0.00 0.00 0.00 51 984.6
20211024015005 46 196 29.0 32.0 0.00 0.00 0.00 51 981.9
20211024014504 46 205 32.0 34.0 0.00 0.00 0.00 50 982.8
20211024014004 46 204 31.0 33.0 0.00 0.00 0.00 50 979.4
20211024013509 46 202 31.0 34.0 0.00 0.00 0.00 51 981.0
20211024013008 46 206 38.0 39.0 0.00 0.00 0.00 51 979.8
20211024012507 46 201 35.0 38.0 0.00 0.00 0.00 51 978.4
20211024012007 46 207 33.0 38.0 0.00 0.00 0.00 51 978.5
20211024011506 46 202 30.0 33.0 0.00 0.00 0.00 50 981.3
20211024011006 46 200 36.0 40.0 0.00 0.00 0.00 50 981.5
20211024010529 46 203 33.0 35.0 0.00 0.00 0.00 51 984.1
20211024010004 46 203 32.0 35.0 0.00 0.00 0.00 50 984.3
20211024005503 46 201 33.0 37.0 0.00 0.00 0.00 49 983.2
20211024005008 47 198 27.0 30.0 0.00 0.00 0.00 47 983.2
20211024004508 47 199 31.0 34.0 0.00 0.00 0.00 47 983.7
20211024004007 47 201 25.0 29.0 0.00 0.00 0.00 48 983.1
20211024003506 47 205 28.0 31.0 0.00 0.00 0.00 48 980.6
20211024003006 47 205 25.0 28.0 0.00 0.00 0.00 48 986.7
20211024002506 47 199 24.0 26.0 0.00 0.00 0.00 48 981.0
20211024002005 48 202 23.0 27.0 0.00 0.00 0.00 49 982.6
20211024001503 48 205 27.0 32.0 0.00 0.00 0.00 47 982.3
20211024001009 48 204 25.0 27.0 0.00 0.00 0.00 47 978.3
20211024000508 48 212 28.0 30.0 0.00 0.00 0.00 47 982.9
20211024000007 48 206 28.0 34.0 0.00 0.00 0.00 47 985.6
20211023235507 49 201 24.0 26.0 0.00 0.00 0.00 46 984.2
20211023235006 48 207 28.0 31.0 0.00 0.00 0.00 47 985.5
20211023234505 48 203 29.0 33.0 0.00 0.00 0.00 47 984.8
20211023234004 49 201 28.0 30.0 0.00 0.00 0.00 47 984.3
20211023233509 48 196 28.0 33.0 0.00 0.00 0.00 48 984.5
20211023233008 49 204 27.0 29.0 0.00 0.00 0.00 47 984.7
20211023232507 48 204 32.0 36.0 0.00 0.00 0.00 47 983.6
20211023232006 48 207 32.0 35.0 0.00 0.00 0.00 48 982.2
20211023231506 48 205 31.0 35.0 0.00 0.00 0.00 46 982.4
20211023231005 48 200 31.0 34.0 0.00 0.00 0.00 47 981.6
20211023230510 47 194 28.0 31.0 0.00 0.00 0.00 47 981.4
20211023230008 47 200 30.0 35.0 0.00 0.00 0.00 47 983.1
20211023225507 47 200 28.0 31.0 0.00 0.00 0.00 48 983.2
20211023225007 48 208 23.0 27.0 0.00 0.00 0.00 48 982.1
20211023224506 47 207 24.0 28.0 0.00 0.00 0.00 48 982.5
20211023224005 47 209 26.0 30.0 0.00 0.00 0.00 48 982.1
20211023223505 47 198 25.0 29.0 0.00 0.00 0.00 49 982.1
20211023223004 47 201 25.0 27.0 0.00 0.00 0.00 48 983.2
20211023222509 47 213 24.0 28.0 0.00 0.00 0.00 48 983.8
20211023222009 48 206 22.0 27.0 0.00 0.00 0.00 48 982.3
20211023221508 47 209 24.0 28.0 0.00 0.00 0.00 48 983.9
20211023221007 48 203 23.0 30.0 0.00 0.00 0.00 48 983.3
20211023220506 47 204 25.0 27.0 0.00 0.00 0.00 48 981.9
20211023220005 48 206 23.0 27.0 0.00 0.00 0.00 49 983.7
20211023215504 48 205 25.0 29.0 0.00 0.00 0.00 49 981.0
20211023215003 48 205 27.0 30.0 0.00 0.00 0.00 49 982.5
20211023214509 47 209 26.0 30.0 0.00 0.00 0.00 48 980.4
20211023214008 48 204 24.0 26.0 0.00 0.00 0.00 49 979.8
20211023213508 47 208 27.0 30.0 0.00 0.00 0.00 49 984.1
20211023213007 48 202 24.0 30.0 0.00 0.00 0.00 51 982.8
20211023212506 49 200 28.0 32.0 0.00 0.00 0.00 48 983.8
20211023212006 48 186 25.0 30.0 0.00 0.00 0.00 50 983.8
20211023211505 47 208 26.0 31.0 0.00 0.00 0.00 49 987.6
20211023211004 47 207 25.0 30.0 0.00 0.00 0.00 51 986.0
20211023210503 47 203 21.0 27.0 0.00 0.00 0.00 51 982.7
20211023210008 47 213 31.0 35.0 0.00 0.00 0.00 49 983.6
20211023205508 48 210 29.0 35.0 0.00 0.00 0.00 48 982.2
20211023205007 49 204 22.0 26.0 0.00 0.00 0.00 48 982.6
20211023204506 49 191 20.0 27.0 0.00 0.00 0.00 47 982.8
20211023204006 47 195 23.0 26.0 0.00 0.00 0.00 49 985.0
20211023203505 47 193 21.0 24.0 0.00 0.00 0.00 49 985.8
20211023203004 46 201 21.0 23.0 0.00 0.00 0.00 49 984.3
20211023202503 47 210 26.0 28.0 0.00 0.00 0.00 49 984.5
20211023202008 47 205 28.0 31.0 0.00 0.00 0.00 48 982.1
20211023201508 47 202 27.0 31.0 0.00 0.00 0.00 48 986.6
20211023201007 47 201 24.0 27.0 0.00 0.00 0.00 50 986.5
20211023200507 47 196 23.0 26.0 0.00 0.00 0.00 51 987.0
20211023200006 47 195 26.0 29.0 0.00 0.00 0.00 50 987.4
20211023195505 48 194 24.0 28.0 0.00 0.00 0.00 51 987.0
20211023195005 47 202 26.0 27.0 0.00 0.00 0.00 51 987.2
20211023194504 46 185 22.0 27.0 0.00 0.00 0.00 52 986.3
20211023194003 47 191 29.0 34.0 0.00 0.00 0.00 50 983.0
20211023193508 46 204 26.0 28.0 0.00 0.00 0.00 50 984.7
20211023193007 47 188 22.0 25.0 0.00 0.00 0.00 48 982.6
20211023192507 47 199 24.0 27.0 0.00 0.00 0.00 46 983.8
20211023192006 47 204 23.0 25.0 0.00 0.00 0.00 45 986.6
20211023191506 47 199 21.0 25.0 0.00 0.00 0.00 44 986.9
20211023191005 48 198 20.0 23.0 0.00 0.00 0.00 44 985.5
20211023190503 47 200 17.0 22.0 0.00 0.00 0.00 44 985.5
20211023190008 47 196 22.0 24.0 0.00 0.00 0.00 44 986.6
20211023185507 47 200 18.0 21.0 0.00 0.00 0.00 43 983.6
20211023185007 47 187 11.0 15.0 0.00 0.00 0.00 45 987.6
20211023184506 45 213 19.0 21.0 0.00 0.00 0.00 44 985.1
20211023184005 46 217 19.0 23.0 0.00 0.00 0.00 45 984.2
20211023183505 45 209 20.0 23.0 0.00 0.00 0.00 43 982.8
20211023183004 45 211 19.0 21.0 0.00 0.00 0.00 42 982.4
20211023182503 46 191 20.0 24.0 0.00 0.00 0.00 44 982.0
20211023182008 45 213 21.0 23.0 0.00 0.00 0.00 41 984.5
20211023181508 46 202 16.0 23.0 0.00 0.00 0.00 43 987.3
20211023181007 45 202 18.0 22.0 0.00 0.00 0.00 42 983.7
20211023180507 46 186 18.0 21.0 0.00 0.00 0.00 39 983.9
20211023180006 46 210 21.0 24.0 0.00 0.00 0.00 38 985.7
20211023175505 45 215 21.0 23.0 0.00 0.00 0.00 37 985.3
20211023175005 45 213 20.0 23.0 0.00 0.00 0.00 35 982.4
20211023174504 46 204 23.0 26.0 0.00 0.00 0.00 39 983.3
20211023174003 45 211 22.0 24.0 0.00 0.00 0.00 38 985.4
20211023173509 45 206 21.0 23.0 0.00 0.00 0.00 36 982.3
20211023173008 45 201 20.0 22.0 0.00 0.00 0.00 36 990.0
20211023172507 45 203 20.0 25.0 0.00 0.00 0.00 36 983.6
20211023172006 44 208 24.0 28.0 0.00 0.00 0.00 35 980.6
20211023171506 45 207 21.0 24.0 0.00 0.00 0.00 35 975.3
20211023171005 44 209 25.0 28.0 0.00 0.00 0.00 34 983.0
20211023170505 44 202 23.0 27.0 0.00 0.00 0.00 35 984.1
20211023170004 43 211 27.0 30.0 0.00 0.00 0.00 36 986.9
20211023165508 43 208 27.0 29.0 0.00 0.00 0.00 37 986.5
20211023165008 43 203 26.0 29.0 0.00 0.00 0.00 36 983.0
20211023164507 43 211 28.0 31.0 0.00 0.00 0.00 34 983.4
20211023164007 43 198 27.0 30.0 0.00 0.00 0.00 33 984.6
20211023163506 43 210 29.0 33.0 0.00 0.00 0.00 31 983.7
20211023163006 43 202 27.0 29.0 0.00 0.00 0.00 33 985.4
20211023162505 44 205 29.0 32.0 0.00 0.00 0.00 30 984.1
20211023162005 43 199 26.0 29.0 0.00 0.00 0.00 32 985.7
20211023161504 44 200 27.0 32.0 0.00 0.00 0.00 35 982.9
20211023161003 44 214 25.0 28.0 0.00 0.00 0.00 33 982.3
20211023160508 43 187 25.0 27.0 0.00 0.00 0.00 32 982.8
20211023160032 43 200 25.0 27.0 0.00 0.00 0.00 33 983.8
20211023155507 43 204 27.0 30.0 0.00 0.00 0.00 32 984.1
20211023155006 43 206 27.0 29.0 0.00 0.00 0.00 33 986.2
20211023154506 43 205 27.0 27.0 0.00 0.00 0.00 34 987.3
20211023154005 43 199 27.0 31.0 0.00 0.00 0.00 33 983.2
20211023153505 43 200 28.0 31.0 0.00 0.00 0.00 30 985.8
20211023153004 43 211 27.0 29.0 0.00 0.00 0.00 31 983.9
20211023152503 44 208 27.0 30.0 0.00 0.00 0.00 29 985.0
20211023152003 42 206 29.0 31.0 0.00 0.00 0.00 31 984.8
20211023151508 42 208 26.0 28.0 0.00 0.00 0.00 36 984.2
20211023151007 42 207 30.0 33.0 0.00 0.00 0.00 33 983.8
20211023150507 42 200 30.0 32.0 0.00 0.00 0.00 34 984.9
20211023150006 42 204 29.0 32.0 0.00 0.00 0.00 37 979.8
20211023145506 42 210 29.0 32.0 0.00 0.00 0.00 31 983.7
20211023145005 42 203 29.0 31.0 0.00 0.00 0.00 33 979.6
20211023144505 42 208 28.0 31.0 0.00 0.00 0.00 32 982.8
20211023144004 42 202 29.0 33.0 0.00 0.00 0.00 33 979.9
20211023143503 41 202 31.0 36.0 0.00 0.00 0.00 35 979.6
20211023143008 41 206 28.0 32.0 0.00 0.00 0.00 37 979.0
20211023142508 42 211 33.0 35.0 0.00 0.00 0.00 35 981.2
20211023142007 42 205 28.0 30.0 0.00 0.00 0.00 36 985.2
20211023141507 42 206 31.0 33.0 0.00 0.00 0.00 33 980.5
20211023141006 41 207 28.0 30.0 0.00 0.00 0.00 34 980.6
20211023140506 42 208 29.0 32.0 0.00 0.00 0.00 34 987.4
20211023140006 42 207 30.0 33.0 0.00 0.00 0.00 36 986.1
20211023135504 42 209 30.0 30.0 0.00 0.00 0.00 36 986.8
20211023135004 42 204 30.0 31.0 0.00 0.00 0.00 36 985.8
20211023134503 42 203 31.0 33.0 0.00 0.00 0.00 35 984.8
20211023134008 42 212 30.0 34.0 0.00 0.00 0.00 38 985.4
20211023133508 42 210 32.0 34.0 0.00 0.00 0.00 39 983.0
20211023133007 41 204 26.0 29.0 0.00 0.00 0.00 44 985.0
20211023132506 41 204 30.0 31.0 0.00 0.00 0.00 38 981.7
20211023132006 42 208 30.0 32.0 0.00 0.00 0.00 37 985.1
20211023131505 41 205 29.0 30.0 0.00 0.00 0.00 42 983.6
20211023131004 42 205 29.0 30.0 0.00 0.00 0.00 37 981.1
20211023130504 42 204 30.0 33.0 0.00 0.00 0.00 36 982.6
20211023130003 42 210 30.0 33.0 0.00 0.00 0.00 30 986.2
20211023125508 42 204 30.0 32.0 0.00 0.00 0.00 29 980.7
20211023125008 42 199 31.0 34.0 0.00 0.00 0.00 32 983.2
20211023124507 42 211 28.0 33.0 0.00 0.00 0.00 29 982.7
20211023124007 43 204 31.0 33.0 0.00 0.00 0.00 28 982.2
20211023123506 43 204 33.0 35.0 0.00 0.00 0.00 28 981.2
20211023123005 43 208 32.0 36.0 0.00 0.00 0.00 26 983.5
20211023122505 43 205 34.0 36.0 0.00 0.00 0.00 26 982.0
20211023122004 43 210 31.0 34.0 0.00 0.00 0.00 28 982.5
20211023121503 43 205 32.0 34.0 0.00 0.00 0.00 28 982.8
20211023121003 43 207 34.0 36.0 0.00 0.00 0.00 28 976.2
20211023120508 43 197 30.0 34.0 0.00 0.00 0.00 30 978.2
20211023120007 42 205 33.0 35.0 0.00 0.00 0.00 32 981.2
20211023115507 42 208 33.0 35.0 0.00 0.00 0.00 32 980.1
20211023115006 42 208 31.0 32.0 0.00 0.00 0.00 31 976.7
20211023114505 42 204 33.0 36.0 0.00 0.00 0.00 34 975.0
20211023114005 42 205 33.0 38.0 0.00 0.00 0.00 34 979.8
20211023113504 42 206 31.0 34.0 0.00 0.00 0.00 38 982.8
20211023113004 42 205 30.0 32.0 0.00 0.00 0.00 37 982.9
20211023112509 41 207 28.0 32.0 0.00 0.00 0.00 42 982.7
20211023112008 42 205 32.0 34.0 0.00 0.00 0.00 41 983.2
20211023111507 42 209 29.0 31.0 0.00 0.00 0.00 43 984.5
20211023111007 41 207 27.0 28.0 0.00 0.00 0.00 47 984.1
20211023110506 42 207 31.0 35.0 0.00 0.00 0.00 47 984.0
20211023110006 41 207 29.0 30.0 0.00 0.00 0.00 47 981.0
20211023105505 41 206 30.0 32.0 0.00 0.00 0.00 50 980.0
20211023105005 41 206 31.0 33.0 0.00 0.00 0.00 53 980.2
20211023104504 42 203 33.0 33.0 0.00 0.00 0.00 51 983.6
20211023104003 41 205 29.0 31.0 0.00 0.00 0.00 53 981.2
20211023103502 42 204 29.0 31.0 0.00 0.00 0.00 51 980.9
20211023103008 42 200 30.0 32.0 0.00 0.00 0.00 50 979.9
20211023102507 42 199 29.0 31.0 0.00 0.00 0.00 51 985.9
20211023102006 42 202 31.0 33.0 0.00 0.00 0.00 51 981.8
20211023101506 42 202 32.0 34.0 0.00 0.00 0.00 52 983.3
20211023101005 42 206 30.0 32.0 0.00 0.00 0.00 53 983.5
20211023100504 42 201 33.0 36.0 0.00 0.00 0.00 54 985.5
20211023100003 42 206 34.0 36.0 0.00 0.00 0.00 52 986.5
20211023095502 42 201 33.0 36.0 0.00 0.00 0.00 51 985.2
20211023095008 42 191 35.0 36.0 0.00 0.00 0.00 52 986.0
20211023094507 42 200 35.0 38.0 0.00 0.00 0.00 51 985.6
20211023094006 42 200 35.0 36.0 0.00 0.00 0.00 51 984.4
20211023093506 42 202 33.0 37.0 0.00 0.00 0.00 51 985.8
20211023093005 42 201 33.0 36.0 0.00 0.00 0.00 51 983.8
20211023092504 42 201 33.0 35.0 0.00 0.00 0.00 50 983.6